ADDS METAR Data INFO
IDs: Format: Raw Decoded Include TAF

Data at: 1951 UTC 14 Aug 2018

KOFP 141854Z AUTO 26006KT 10SM CLR 29/18 A2996 RMK AO2 SLP143 T02940178 $
KOFP 141754Z AUTO VRB05KT 10SM CLR 28/18 A2998 RMK AO2 SLP150 T02780178 10283 20189 58008 $
KOFP 141654Z AUTO 29006KT 10SM CLR 27/18 A2999 RMK AO2 SLP155 T02720183 $
KOFP 141554Z AUTO VRB03KT 10SM CLR 27/18 A3000 RMK AO2 SLP157 T02670178 $
KOFP 141454Z AUTO VRB03KT 10SM CLR 26/18 A3000 RMK AO2 SLP158 T02560178 52001 $
KOFP 141354Z AUTO 00000KT 10SM CLR 23/19 A3000 RMK AO2 SLP157 T02330189 $
KOFP 141254Z AUTO 20003KT 10SM CLR 21/18 A3000 RMK AO2 SLP158 T02060178
KOFP 141154Z AUTO 00000KT 10SM CLR 19/18 A3000 RMK AO2 SLP158 70005 T01890178 10189 20167 53011
KOFP 141054Z AUTO 00000KT 7SM CLR 17/17 A2999 RMK AO2 SLP152 T01720167
KOFP 140954Z AUTO 00000KT 9SM CLR 17/17 A2997 RMK AO2 SLP147 T01720167
KOFP 140854Z AUTO 20003KT 10SM CLR 17/17 A2997 RMK AO2 SLP146 T01720172 55000
KOFP 140754Z AUTO 20005KT 10SM CLR 17/17 A2996 RMK AO2 SLP145 T01720167
KOFP 140654Z AUTO 18003KT 10SM CLR 18/17 A2996 RMK AO2 SLP144 T01780172
KOFP 140554Z AUTO 28008KT 10SM CLR 18/17 A2997 RMK AO2 SLP146 60004 T01830172 10206 20178 58002
KOFP 140454Z AUTO 22004KT 10SM CLR 19/18 A2998 RMK AO2 SLP151 T01890183 402890178
KOFP 140354Z AUTO 00000KT 7SM CLR 18/18 A2999 RMK AO2 SLP154 T01830178
KOFP 140254Z AUTO 21003KT 10SM CLR 19/18 A2998 RMK AO2 SLP149 P0001 60004 T01890183 58001
KOFP 140154Z AUTO 00000KT 5SM BR CLR 18/18 A2999 RMK AO2 RAE12 SLP154 P0000 T01830183
KOFP 140103Z AUTO 00000KT 10SM -RA FEW055 FEW085 BKN110 19/19 A2999 RMK AO2 LTG DSNT NE-SE P0000 T01940189
KOFP 140054Z AUTO 00000KT 9SM VCTS -RA OVC110 19/19 A2997 RMK AO2 LTG DSNT NE-SE SLP148 P0003 T01940189
KOFP 140004Z AUTO 25007KT 10SM VCTS -RA FEW070 FEW090 OVC110 20/18 A2999 RMK AO2 LTG DSNT ALQDS P0000 T02000183
KOFP 132354Z AUTO 26011KT 10SM -RA SCT070 BKN080 BKN100 21/18 A2998 RMK AO2 LTG DSNT SE-W RAE04B47 SLP150 P0000 60001 T02060183 10289 20200 53012
KOFP 132352Z AUTO 26012KT 10SM -RA SCT070 BKN080 BKN100 21/18 A2998 RMK AO2 LTG DSNT S-W RAE04B47 P0000
KOFP 132337Z AUTO 24007KT 10SM VCTS SCT085 22/18 A2998 RMK AO2 LTG DSNT S-W RAE04 PRESRR P0000 T02170178
KOFP 132254Z AUTO VRB05KT 7SM -RA SCT040 BKN049 OVC110 22/17 A2994 RMK AO2 LTG DSNT SW AND W RAB46 SLP138 P0001 T02170172
KOFP 132154Z AUTO 23006KT 10SM CLR 29/20 A2994 RMK AO2 LTG DSNT W-N SLP137 T02890200
KOFP 132054Z AUTO 25005KT 10SM FEW039 28/20 A2994 RMK AO2 SLP138 T02830200 56019
KOFP 131954Z AUTO 23005KT 10SM CLR 28/20 A2995 RMK AO2 SLP140 T02830200
KOFP 131854Z AUTO VRB03KT 10SM CLR 28/19 A2998 RMK AO2 SLP149 T02830194
KOFP 131754Z AUTO VRB05KT 10SM SCT030 SCT035 27/20 A3000 RMK AO2 SLP157 T02720200 10278 20200 58012
KOFP 131705Z AUTO 26004KT 10SM FEW023 SCT030 SCT036 26/21 A3001 RMK AO2 T02610206
KOFP 131654Z AUTO 30005KT 10SM BKN023 BKN032 26/21 A3002 RMK AO2 SLP162 T02560206
KOFP 131644Z AUTO 00000KT 10SM SCT020 BKN032 26/21 A3002 RMK AO2 T02610206
KOFP 131554Z AUTO 00000KT 10SM FEW015 BKN023 BKN031 26/21 A3003 RMK AO2 SLP168 T02560206
KOFP 131551Z AUTO VRB03KT 10SM FEW015 BKN023 25/21 A3003 RMK AO2
KOFP 131539Z AUTO 00000KT 10SM FEW012 SCT021 24/21 A3004 RMK AO2 T02440206
KOFP 131515Z AUTO 22004KT 9SM SCT010 BKN015 BKN025 24/22 A3005 RMK AO2 T02390217
KOFP 131454Z AUTO 9SM OVC008 23/21 A3004 RMK AO2 SLP171 T02280211 51009
KOFP 131354Z AUTO 29004KT 8SM OVC005 22/21 A3004 RMK AO2 SLP171 T02170206
KOFP 131324Z AUTO 30004KT 7SM OVC005 22/21 A3003 RMK AO2 T02170206
KOFP 131254Z AUTO 31003KT 6SM BR OVC003 21/21 A3003 RMK AO2 SLP166 T02110206
KOFP 131206Z AUTO 29003KT 3SM BR OVC002 20/20 A3001 RMK AO2 T02000200
KOFP 131154Z AUTO 28005KT 1 1/2SM BR OVC002 20/20 A3001 RMK AO2 SLP162 70158 T02000200 10206 20194 53003
KOFP 131145Z AUTO 30004KT 1 3/4SM BR OVC002 20/20 A3001 RMK AO2 T02000200
KOFP 131124Z AUTO 29004KT 4SM BR BKN002 20/20 A3001 RMK AO2 T02000200
KOFP 131109Z AUTO 30003KT 2SM BR BKN002 20/20 A3001 RMK AO2 T02000200
KOFP 131054Z AUTO 28003KT 4SM BR BKN002 20/20 A3001 RMK AO2 SLP160 T02000200
KOFP 131052Z AUTO 27003KT 3SM BR BKN002 20/20 A3001 RMK AO2
KOFP 131043Z AUTO 00000KT 2SM BR BKN002 20/19 A3001 RMK AO2 T02000194
KOFP 131034Z AUTO 00000KT 1 1/4SM BR OVC002 19/19 A3001 RMK AO2 T01940194
KOFP 131027Z AUTO 00000KT 2SM BR BKN002 19/19 A3001 RMK AO2 T01940194
KOFP 131020Z AUTO 00000KT 3SM BR BKN002 19/19 A3001 RMK AO2 T01940194
KOFP 131012Z AUTO 27003KT 3SM BR SCT003 19/19 A3001 RMK AO2 T01940194
KOFP 131002Z AUTO 00000KT 1 3/4SM BR FEW003 19/19 A3001 RMK AO2 VIS 1 1/4V4 T01940194
KOFP 130954Z AUTO 00000KT 3SM BR FEW003 19/19 A3001 RMK AO2 SLP159 T01940194
KOFP 130947Z AUTO 00000KT 5SM BR CLR 19/19 A3001 RMK AO2 T01940194
KOFP 130939Z AUTO 30003KT 2SM BR CLR 19/19 A3001 RMK AO2 T01940194
KOFP 130935Z AUTO 00000KT 1 1/4SM BR CLR 19/19 A3001 RMK AO2 T01940194
KOFP 130927Z AUTO 00000KT 1 3/4SM BR CLR 19/19 A3001 RMK AO2 T01940194
KOFP 130854Z AUTO 00000KT 7SM CLR 20/20 A3002 RMK AO2 SLP163 T02000200 58003
KOFP 130840Z AUTO 24003KT 7SM SCT023 20/20 A3002 RMK AO2 T02000200
KOFP 130754Z AUTO 19004KT 7SM OVC020 21/21 A3003 RMK AO2 SLP166 T02060206